Архив погоды в Балашове

Метеограмма Балашов
Вторник, 22 Мая
Время местн. Темп Ветер Видим Явления Облачность нижн/средн/верх Атм. давл. Влжн Точка росы ВНГО R Сост. почвы Tg s
Напр Скр Прв ур.ст ур.м изм
21:00 +15.7° С,С-В 1 - 20 км слабый ливневый дождь облачно 756 770 +0.8 98% +15.4° 1 км - - - -
18:00 +19.8° В,С-В 3 - 20 км ливневый дождь облачно 755 769 -0.4 60% +11.9° 1 км - - - -
15:00 +21° В,Ю-В 3 - 20 км - облачно 756 770 +0.5 53% +11° 1.5 км - - - -
12:00 +19.9° В 3 - 20 км - преимущественно облачно 755 769 0 58% +11.5° 1 км - - - -
09:00 +16.3° В 4 10 20 км - облачно 755 769 +0.8 69% +10.6° 1 км - - - -
06:00 +13.5° В,С-В 3 - 20 км - облачно 754 769 +0.6 77% +9.6° - - Сырая (есть малые или большие лужи) - -
03:00 +13° С 1 - 20 км - облачно 754 768 +0.7 95% +12.2° 1 км - - - -
00:00 +14.6° С-В 3 - 20 км - облачно 753 767 +0.6 91% +13.1° 600 м - - - -
Понедельник, 21 Мая
Время местн. Темп Ветер Видим Явления Облачность нижн/средн/верх Атм. давл. Влжн Точка росы ВНГО R Сост. почвы Tg s
Напр Скр Прв ур.ст ур.м изм
21:00 +16° С,С-В 3 - 20 км - преимущественно облачно 752 766 +1 95% +15.2° 600 м - - - -
18:00 +17.5° С-В 5 - 20 км - облачно 751 765 +0.1 87% +15.4° 600 м - - - -
15:00 +17.2° В,С-В 6 12 10 км небо без изменений {ливневые осадки} облачно 751 765 +0.5 93% +16.1° 600 м - - - -
12:00 +15.9° С-В 4 10 10 км слабый ливневый дождь облачно 751 765 +0.3 95% +15.1° 600 м - - - -
09:00 +15.6° С-В 2 - 10 км слабый ливневый дождь облачно 751 765 +1.3 93% +14.5° 600 м - - - -
06:00 +15.3° С-В 2 - 20 км ливневый дождь облачно 749 763 +0.6 91% +13.8° 600 м - Влажная (без луж) - -
03:00 +15.8° В,Ю-В 2 - 20 км - облачно 749 763 +0.5 92% +14.5° более 2.5 км - - - -
00:00 +15.8° В 1 - 20 км - облачно с прояснениями 748 762 -0.2 95% +15° более 2.5 км - - - -
Воскресенье, 20 Мая
Время местн. Темп Ветер Видим Явления Облачность нижн/средн/верх Атм. давл. Влжн Точка росы ВНГО R Сост. почвы Tg s
Напр Скр Прв ур.ст ур.м изм
21:00 +17.6° В,Ю-В 2 - 20 км - облачно 748 762 +1.3 82% +14.5° 1 км - - - -
18:00 +22.7° Ю,Ю-З 1 - 20 км - облачно 747 761 -0.2 57% +13.7° - - - - -
15:00 +23.7° З,Ю-З 2 - 20 км облака рассеиваются {ливневые осадки} облачно с прояснениями 747 761 -0.3 55% +14° 1.5 км - - - -
12:00 +20.3° Ю 1 - 10 км слабый ливневый дождь облачно 748 761 +0.3 74% +15.6° 600 м - - - -
09:00 +20° Ю,Ю-З 1 - 20 км - облачно с прояснениями 747 761 +0.8 74% +15.2° более 2.5 км - - - -
06:00 +13.1° Ю 1 - 20 км - переменная облачность 747 761 +0.5 96% +12.4° более 2.5 км - Влажная (без луж) - -
03:00 +10.3° Ю 2 - 20 км - переменная облачность 746 760 +0.4 93% +9.2° более 2.5 км - - - -
00:00 +12.8° Ю,Ю-З 2 - 20 км - переменная облачность 746 760 +0.2 93% +11.7° - - - - -
Суббота, 19 Мая
Время местн. Темп Ветер Видим Явления Облачность нижн/средн/верх Атм. давл. Влжн Точка росы ВНГО R Сост. почвы Tg s
Напр Скр Прв ур.ст ур.м изм
21:00 +16.1° Ю-З 5 - 20 км облака рассеиваются {гроза, ливневые осадки} переменная облачность 745 759 +1 88% +14.1° 1 км - - - -
18:00 +18.2° Ю,Ю-З 2 - 20 км небо без изменений {гроза, ливневые осадки} облачно 744 758 -0.9 85% +15.6° 1 км - - - -